sensor_id;sensor_type;location;lat;lon;timestamp;P1;durP1;ratioP1;P2;durP2;ratioP2
12906;SDS011;6521;50.498;8.474;2023-08-31T00:00:01;9.17;;;6.57;;
12906;SDS011;6521;50.498;8.474;2023-08-31T00:02:31;8.88;;;6.57;;
12906;SDS011;6521;50.498;8.474;2023-08-31T00:05:02;11.88;;;7.40;;
12906;SDS011;6521;50.498;8.474;2023-08-31T00:07:36;11.07;;;7.30;;
12906;SDS011;6521;50.498;8.474;2023-08-31T00:10:07;11.60;;;6.45;;
12906;SDS011;6521;50.498;8.474;2023-08-31T00:12:42;11.40;;;7.35;;
12906;SDS011;6521;50.498;8.474;2023-08-31T00:15:14;9.05;;;6.25;;
12906;SDS011;6521;50.498;8.474;2023-08-31T00:17:45;7.72;;;6.55;;
12906;SDS011;6521;50.498;8.474;2023-08-31T00:20:16;10.10;;;6.93;;
12906;SDS011;6521;50.498;8.474;2023-08-31T00:22:48;10.73;;;6.93;;
12906;SDS011;6521;50.498;8.474;2023-08-31T00:25:19;7.50;;;6.67;;
12906;SDS011;6521;50.498;8.474;2023-08-31T00:27:49;10.82;;;7.40;;
12906;SDS011;6521;50.498;8.474;2023-08-31T00:30:22;7.75;;;6.85;;
12906;SDS011;6521;50.498;8.474;2023-08-31T00:32:58;8.93;;;6.70;;
12906;SDS011;6521;50.498;8.474;2023-08-31T00:35:33;8.90;;;6.73;;
12906;SDS011;6521;50.498;8.474;2023-08-31T00:38:06;11.57;;;6.72;;
12906;SDS011;6521;50.498;8.474;2023-08-31T00:40:43;8.57;;;6.53;;
12906;SDS011;6521;50.498;8.474;2023-08-31T00:43:19;7.73;;;6.43;;
12906;SDS011;6521;50.498;8.474;2023-08-31T00:45:51;6.47;;;5.78;;
12906;SDS011;6521;50.498;8.474;2023-08-31T00:48:27;7.15;;;5.95;;
12906;SDS011;6521;50.498;8.474;2023-08-31T00:50:58;9.15;;;6.63;;
12906;SDS011;6521;50.498;8.474;2023-08-31T00:53:31;7.72;;;6.45;;
12906;SDS011;6521;50.498;8.474;2023-08-31T00:56:04;10.95;;;6.28;;
12906;SDS011;6521;50.498;8.474;2023-08-31T00:58:37;6.63;;;5.90;;
12906;SDS011;6521;50.498;8.474;2023-08-31T01:01:11;10.25;;;6.95;;
12906;SDS011;6521;50.498;8.474;2023-08-31T01:09:51;7.37;;;5.87;;
12906;SDS011;6521;50.498;8.474;2023-08-31T01:15:10;9.47;;;6.77;;
12906;SDS011;6521;50.498;8.474;2023-08-31T01:17:46;9.87;;;7.13;;
12906;SDS011;6521;50.498;8.474;2023-08-31T01:20:29;9.40;;;6.93;;
12906;SDS011;6521;50.498;8.474;2023-08-31T01:23:06;8.30;;;6.77;;
12906;SDS011;6521;50.498;8.474;2023-08-31T01:25:40;13.53;;;6.53;;
12906;SDS011;6521;50.498;8.474;2023-08-31T01:28:13;8.57;;;6.22;;
12906;SDS011;6521;50.498;8.474;2023-08-31T01:30:44;7.67;;;6.30;;
12906;SDS011;6521;50.498;8.474;2023-08-31T01:33:15;8.47;;;6.87;;
12906;SDS011;6521;50.498;8.474;2023-08-31T01:35:48;7.13;;;6.10;;
12906;SDS011;6521;50.498;8.474;2023-08-31T01:38:25;8.13;;;6.07;;
12906;SDS011;6521;50.498;8.474;2023-08-31T01:41:07;6.93;;;6.13;;
12906;SDS011;6521;50.498;8.474;2023-08-31T01:43:44;6.43;;;5.77;;
12906;SDS011;6521;50.498;8.474;2023-08-31T01:46:16;7.60;;;6.20;;
12906;SDS011;6521;50.498;8.474;2023-08-31T01:48:47;7.43;;;6.23;;
12906;SDS011;6521;50.498;8.474;2023-08-31T01:51:19;9.52;;;6.90;;
12906;SDS011;6521;50.498;8.474;2023-08-31T01:53:49;7.50;;;5.73;;
12906;SDS011;6521;50.498;8.474;2023-08-31T01:56:22;8.43;;;6.57;;
12906;SDS011;6521;50.498;8.474;2023-08-31T01:58:52;9.03;;;5.70;;
12906;SDS011;6521;50.498;8.474;2023-08-31T02:01:23;7.43;;;5.80;;
12906;SDS011;6521;50.498;8.474;2023-08-31T02:03:55;7.53;;;5.00;;
12906;SDS011;6521;50.498;8.474;2023-08-31T02:06:27;6.27;;;5.10;;
12906;SDS011;6521;50.498;8.474;2023-08-31T02:08:58;7.93;;;5.50;;
12906;SDS011;6521;50.498;8.474;2023-08-31T02:11:30;6.30;;;5.63;;
12906;SDS011;6521;50.498;8.474;2023-08-31T02:14:02;5.40;;;4.67;;
12906;SDS011;6521;50.498;8.474;2023-08-31T02:16:34;6.97;;;5.73;;
12906;SDS011;6521;50.498;8.474;2023-08-31T02:19:08;9.93;;;6.73;;
12906;SDS011;6521;50.498;8.474;2023-08-31T02:21:47;9.10;;;6.97;;
12906;SDS011;6521;50.498;8.474;2023-08-31T02:24:19;10.03;;;6.90;;
12906;SDS011;6521;50.498;8.474;2023-08-31T02:26:51;7.90;;;6.73;;
12906;SDS011;6521;50.498;8.474;2023-08-31T02:29:22;10.13;;;8.60;;
12906;SDS011;6521;50.498;8.474;2023-08-31T02:31:53;11.63;;;7.80;;
12906;SDS011;6521;50.498;8.474;2023-08-31T02:34:23;9.70;;;7.90;;
12906;SDS011;6521;50.498;8.474;2023-08-31T02:36:54;12.13;;;7.97;;
12906;SDS011;6521;50.498;8.474;2023-08-31T02:39:25;11.27;;;8.13;;
12906;SDS011;6521;50.498;8.474;2023-08-31T02:41:55;9.10;;;7.87;;
12906;SDS011;6521;50.498;8.474;2023-08-31T02:44:26;9.97;;;8.57;;
12906;SDS011;6521;50.498;8.474;2023-08-31T02:46:57;13.23;;;7.90;;
12906;SDS011;6521;50.498;8.474;2023-08-31T02:49:28;13.97;;;8.27;;
12906;SDS011;6521;50.498;8.474;2023-08-31T02:52:00;8.77;;;7.27;;
12906;SDS011;6521;50.498;8.474;2023-08-31T02:54:31;9.23;;;7.73;;
12906;SDS011;6521;50.498;8.474;2023-08-31T02:57:01;10.67;;;8.87;;
12906;SDS011;6521;50.498;8.474;2023-08-31T02:59:33;12.57;;;8.23;;
12906;SDS011;6521;50.498;8.474;2023-08-31T03:02:06;12.67;;;8.50;;
12906;SDS011;6521;50.498;8.474;2023-08-31T03:04:36;15.73;;;9.27;;
12906;SDS011;6521;50.498;8.474;2023-08-31T03:07:07;10.30;;;9.20;;
12906;SDS011;6521;50.498;8.474;2023-08-31T03:09:38;11.20;;;8.95;;
12906;SDS011;6521;50.498;8.474;2023-08-31T03:12:09;12.93;;;8.63;;
12906;SDS011;6521;50.498;8.474;2023-08-31T03:14:40;11.70;;;8.80;;
12906;SDS011;6521;50.498;8.474;2023-08-31T03:17:10;10.20;;;8.73;;
12906;SDS011;6521;50.498;8.474;2023-08-31T03:19:41;15.83;;;9.50;;
12906;SDS011;6521;50.498;8.474;2023-08-31T03:22:12;9.23;;;7.67;;
12906;SDS011;6521;50.498;8.474;2023-08-31T03:24:43;12.17;;;8.77;;
12906;SDS011;6521;50.498;8.474;2023-08-31T03:27:13;12.20;;;8.87;;
12906;SDS011;6521;50.498;8.474;2023-08-31T03:29:46;11.27;;;8.63;;
12906;SDS011;6521;50.498;8.474;2023-08-31T03:32:17;10.70;;;8.90;;
12906;SDS011;6521;50.498;8.474;2023-08-31T03:34:49;11.20;;;8.20;;
12906;SDS011;6521;50.498;8.474;2023-08-31T03:37:20;15.10;;;8.33;;
12906;SDS011;6521;50.498;8.474;2023-08-31T03:39:52;8.50;;;7.60;;
12906;SDS011;6521;50.498;8.474;2023-08-31T03:42:22;11.27;;;8.43;;
12906;SDS011;6521;50.498;8.474;2023-08-31T03:44:54;14.37;;;8.73;;
12906;SDS011;6521;50.498;8.474;2023-08-31T03:47:25;10.23;;;8.20;;
12906;SDS011;6521;50.498;8.474;2023-08-31T03:49:55;11.10;;;8.77;;
12906;SDS011;6521;50.498;8.474;2023-08-31T03:52:26;11.40;;;9.33;;
12906;SDS011;6521;50.498;8.474;2023-08-31T03:54:57;10.50;;;8.90;;
12906;SDS011;6521;50.498;8.474;2023-08-31T03:57:27;15.20;;;9.50;;
12906;SDS011;6521;50.498;8.474;2023-08-31T04:00:04;15.47;;;8.47;;
12906;SDS011;6521;50.498;8.474;2023-08-31T04:02:44;8.87;;;7.97;;
12906;SDS011;6521;50.498;8.474;2023-08-31T04:05:17;12.13;;;9.10;;
12906;SDS011;6521;50.498;8.474;2023-08-31T04:07:48;11.77;;;8.97;;
12906;SDS011;6521;50.498;8.474;2023-08-31T04:10:18;10.00;;;8.80;;
12906;SDS011;6521;50.498;8.474;2023-08-31T04:12:49;13.77;;;9.47;;
12906;SDS011;6521;50.498;8.474;2023-08-31T04:15:20;11.70;;;9.03;;
12906;SDS011;6521;50.498;8.474;2023-08-31T04:17:51;12.07;;;9.43;;
12906;SDS011;6521;50.498;8.474;2023-08-31T04:20:22;14.80;;;9.77;;
12906;SDS011;6521;50.498;8.474;2023-08-31T04:22:53;12.00;;;9.57;;
12906;SDS011;6521;50.498;8.474;2023-08-31T04:25:23;16.83;;;10.77;;
12906;SDS011;6521;50.498;8.474;2023-08-31T04:27:54;12.80;;;9.63;;
12906;SDS011;6521;50.498;8.474;2023-08-31T04:30:25;15.77;;;11.00;;
12906;SDS011;6521;50.498;8.474;2023-08-31T04:32:56;12.87;;;10.93;;
12906;SDS011;6521;50.498;8.474;2023-08-31T04:35:27;14.57;;;10.10;;
12906;SDS011;6521;50.498;8.474;2023-08-31T04:37:58;14.43;;;10.23;;
12906;SDS011;6521;50.498;8.474;2023-08-31T04:40:29;14.83;;;10.37;;
12906;SDS011;6521;50.498;8.474;2023-08-31T04:42:59;22.23;;;10.57;;
12906;SDS011;6521;50.498;8.474;2023-08-31T04:45:30;14.53;;;10.37;;
12906;SDS011;6521;50.498;8.474;2023-08-31T04:48:01;14.33;;;10.20;;
12906;SDS011;6521;50.498;8.474;2023-08-31T04:50:31;12.33;;;10.53;;
12906;SDS011;6521;50.498;8.474;2023-08-31T04:53:02;15.10;;;9.67;;
12906;SDS011;6521;50.498;8.474;2023-08-31T04:55:34;13.20;;;9.93;;
12906;SDS011;6521;50.498;8.474;2023-08-31T04:58:06;17.50;;;10.70;;
12906;SDS011;6521;50.498;8.474;2023-08-31T05:00:36;11.43;;;10.23;;
12906;SDS011;6521;50.498;8.474;2023-08-31T05:03:09;14.20;;;10.13;;
12906;SDS011;6521;50.498;8.474;2023-08-31T05:05:40;17.60;;;9.93;;
12906;SDS011;6521;50.498;8.474;2023-08-31T05:08:14;13.97;;;9.80;;
12906;SDS011;6521;50.498;8.474;2023-08-31T05:10:45;12.47;;;9.10;;
12906;SDS011;6521;50.498;8.474;2023-08-31T05:13:16;14.90;;;9.33;;
12906;SDS011;6521;50.498;8.474;2023-08-31T05:15:47;11.57;;;9.63;;
12906;SDS011;6521;50.498;8.474;2023-08-31T05:18:18;12.00;;;9.53;;
12906;SDS011;6521;50.498;8.474;2023-08-31T05:20:48;17.40;;;9.37;;
12906;SDS011;6521;50.498;8.474;2023-08-31T05:23:19;13.83;;;9.57;;
12906;SDS011;6521;50.498;8.474;2023-08-31T05:25:52;13.07;;;9.53;;
12906;SDS011;6521;50.498;8.474;2023-08-31T05:28:25;10.63;;;9.13;;
12906;SDS011;6521;50.498;8.474;2023-08-31T05:30:56;12.53;;;9.10;;
12906;SDS011;6521;50.498;8.474;2023-08-31T05:33:30;13.50;;;9.30;;
12906;SDS011;6521;50.498;8.474;2023-08-31T05:36:04;12.97;;;9.53;;
12906;SDS011;6521;50.498;8.474;2023-08-31T05:38:35;14.27;;;8.60;;
12906;SDS011;6521;50.498;8.474;2023-08-31T05:41:08;13.87;;;9.40;;
12906;SDS011;6521;50.498;8.474;2023-08-31T05:43:39;11.20;;;8.97;;
12906;SDS011;6521;50.498;8.474;2023-08-31T05:46:16;28.17;;;9.97;;
12906;SDS011;6521;50.498;8.474;2023-08-31T05:48:49;13.53;;;9.07;;
12906;SDS011;6521;50.498;8.474;2023-08-31T05:51:20;15.90;;;9.33;;
12906;SDS011;6521;50.498;8.474;2023-08-31T05:53:51;11.37;;;8.87;;
12906;SDS011;6521;50.498;8.474;2023-08-31T05:56:23;16.30;;;7.97;;
12906;SDS011;6521;50.498;8.474;2023-08-31T05:58:54;11.57;;;7.40;;
12906;SDS011;6521;50.498;8.474;2023-08-31T06:01:26;12.00;;;8.10;;
12906;SDS011;6521;50.498;8.474;2023-08-31T06:03:56;12.10;;;9.20;;
12906;SDS011;6521;50.498;8.474;2023-08-31T06:06:27;13.60;;;8.00;;
12906;SDS011;6521;50.498;8.474;2023-08-31T06:08:58;10.80;;;7.73;;
12906;SDS011;6521;50.498;8.474;2023-08-31T06:11:28;15.97;;;7.57;;
12906;SDS011;6521;50.498;8.474;2023-08-31T06:13:59;11.60;;;7.60;;
12906;SDS011;6521;50.498;8.474;2023-08-31T06:16:31;12.87;;;6.87;;
12906;SDS011;6521;50.498;8.474;2023-08-31T06:19:02;10.17;;;6.47;;
12906;SDS011;6521;50.498;8.474;2023-08-31T06:21:33;9.63;;;6.47;;
12906;SDS011;6521;50.498;8.474;2023-08-31T06:24:08;10.70;;;6.88;;
12906;SDS011;6521;50.498;8.474;2023-08-31T06:26:43;8.93;;;6.27;;
12906;SDS011;6521;50.498;8.474;2023-08-31T06:29:13;13.57;;;7.13;;
12906;SDS011;6521;50.498;8.474;2023-08-31T06:31:44;10.43;;;6.82;;
12906;SDS011;6521;50.498;8.474;2023-08-31T06:34:15;11.97;;;6.27;;
12906;SDS011;6521;50.498;8.474;2023-08-31T06:36:46;8.70;;;5.83;;
12906;SDS011;6521;50.498;8.474;2023-08-31T06:39:16;7.80;;;5.60;;
12906;SDS011;6521;50.498;8.474;2023-08-31T06:41:51;11.57;;;5.63;;
12906;SDS011;6521;50.498;8.474;2023-08-31T06:44:22;11.10;;;5.43;;
12906;SDS011;6521;50.498;8.474;2023-08-31T06:46:53;11.15;;;5.07;;
12906;SDS011;6521;50.498;8.474;2023-08-31T06:49:23;7.97;;;5.30;;
12906;SDS011;6521;50.498;8.474;2023-08-31T06:51:55;5.65;;;4.80;;
12906;SDS011;6521;50.498;8.474;2023-08-31T06:54:27;6.63;;;4.68;;
12906;SDS011;6521;50.498;8.474;2023-08-31T06:56:57;9.77;;;4.87;;
12906;SDS011;6521;50.498;8.474;2023-08-31T06:59:28;6.00;;;4.38;;
12906;SDS011;6521;50.498;8.474;2023-08-31T07:01:59;8.75;;;4.75;;
12906;SDS011;6521;50.498;8.474;2023-08-31T07:04:30;11.55;;;5.28;;
12906;SDS011;6521;50.498;8.474;2023-08-31T07:07:00;8.55;;;4.50;;
12906;SDS011;6521;50.498;8.474;2023-08-31T07:09:31;6.43;;;3.97;;
12906;SDS011;6521;50.498;8.474;2023-08-31T07:12:02;8.88;;;4.63;;
12906;SDS011;6521;50.498;8.474;2023-08-31T07:14:33;7.88;;;5.43;;
12906;SDS011;6521;50.498;8.474;2023-08-31T07:17:04;5.43;;;4.25;;
12906;SDS011;6521;50.498;8.474;2023-08-31T07:19:38;10.80;;;4.45;;
12906;SDS011;6521;50.498;8.474;2023-08-31T07:22:09;16.27;;;5.28;;
12906;SDS011;6521;50.498;8.474;2023-08-31T07:24:40;5.85;;;4.38;;
12906;SDS011;6521;50.498;8.474;2023-08-31T07:27:10;7.88;;;5.10;;
12906;SDS011;6521;50.498;8.474;2023-08-31T07:29:43;10.02;;;4.40;;
12906;SDS011;6521;50.498;8.474;2023-08-31T07:32:14;9.45;;;5.05;;
12906;SDS011;6521;50.498;8.474;2023-08-31T07:34:47;8.77;;;4.50;;
12906;SDS011;6521;50.498;8.474;2023-08-31T07:37:18;8.50;;;4.20;;
12906;SDS011;6521;50.498;8.474;2023-08-31T07:39:49;10.05;;;4.68;;
12906;SDS011;6521;50.498;8.474;2023-08-31T07:42:20;14.00;;;4.28;;
12906;SDS011;6521;50.498;8.474;2023-08-31T07:44:53;8.45;;;4.43;;
12906;SDS011;6521;50.498;8.474;2023-08-31T07:47:26;5.20;;;3.47;;
12906;SDS011;6521;50.498;8.474;2023-08-31T07:49:56;5.75;;;3.67;;
12906;SDS011;6521;50.498;8.474;2023-08-31T07:52:27;6.93;;;3.53;;
12906;SDS011;6521;50.498;8.474;2023-08-31T07:54:59;4.45;;;3.67;;
12906;SDS011;6521;50.498;8.474;2023-08-31T07:57:31;6.97;;;3.30;;
12906;SDS011;6521;50.498;8.474;2023-08-31T08:00:01;7.60;;;3.45;;
12906;SDS011;6521;50.498;8.474;2023-08-31T08:02:43;12.30;;;3.45;;
12906;SDS011;6521;50.498;8.474;2023-08-31T08:05:15;3.80;;;3.40;;
12906;SDS011;6521;50.498;8.474;2023-08-31T08:07:45;5.85;;;3.28;;
12906;SDS011;6521;50.498;8.474;2023-08-31T08:10:16;7.53;;;3.45;;
12906;SDS011;6521;50.498;8.474;2023-08-31T08:12:47;4.93;;;3.35;;
12906;SDS011;6521;50.498;8.474;2023-08-31T08:15:18;5.65;;;3.38;;
12906;SDS011;6521;50.498;8.474;2023-08-31T08:17:48;4.32;;;3.22;;
12906;SDS011;6521;50.498;8.474;2023-08-31T08:20:21;6.40;;;3.00;;
12906;SDS011;6521;50.498;8.474;2023-08-31T08:22:52;7.30;;;3.35;;
12906;SDS011;6521;50.498;8.474;2023-08-31T08:25:22;4.15;;;3.30;;
12906;SDS011;6521;50.498;8.474;2023-08-31T08:27:56;7.72;;;3.17;;
12906;SDS011;6521;50.498;8.474;2023-08-31T08:30:26;9.57;;;3.17;;
12906;SDS011;6521;50.498;8.474;2023-08-31T08:32:57;6.95;;;3.00;;
12906;SDS011;6521;50.498;8.474;2023-08-31T08:35:29;4.75;;;3.05;;
12906;SDS011;6521;50.498;8.474;2023-08-31T08:37:59;3.35;;;2.75;;
12906;SDS011;6521;50.498;8.474;2023-08-31T08:40:30;4.68;;;3.22;;
12906;SDS011;6521;50.498;8.474;2023-08-31T08:43:01;3.60;;;2.60;;
12906;SDS011;6521;50.498;8.474;2023-08-31T08:45:36;10.45;;;3.38;;
12906;SDS011;6521;50.498;8.474;2023-08-31T08:48:09;6.20;;;2.95;;
12906;SDS011;6521;50.498;8.474;2023-08-31T08:50:39;6.78;;;2.90;;
12906;SDS011;6521;50.498;8.474;2023-08-31T08:53:11;6.03;;;2.60;;
12906;SDS011;6521;50.498;8.474;2023-08-31T08:55:44;3.85;;;2.30;;
12906;SDS011;6521;50.498;8.474;2023-08-31T08:58:15;5.03;;;2.90;;
12906;SDS011;6521;50.498;8.474;2023-08-31T09:00:46;6.43;;;2.92;;
12906;SDS011;6521;50.498;8.474;2023-08-31T09:03:20;8.48;;;2.70;;
12906;SDS011;6521;50.498;8.474;2023-08-31T09:05:51;5.80;;;3.03;;
12906;SDS011;6521;50.498;8.474;2023-08-31T09:08:25;4.90;;;2.63;;
12906;SDS011;6521;50.498;8.474;2023-08-31T09:10:57;5.20;;;2.40;;
12906;SDS011;6521;50.498;8.474;2023-08-31T09:13:29;3.40;;;2.13;;
12906;SDS011;6521;50.498;8.474;2023-08-31T09:16:02;4.68;;;2.60;;
12906;SDS011;6521;50.498;8.474;2023-08-31T09:18:33;6.75;;;3.30;;
12906;SDS011;6521;50.498;8.474;2023-08-31T09:21:05;6.40;;;2.58;;
12906;SDS011;6521;50.498;8.474;2023-08-31T09:23:35;3.55;;;2.47;;
12906;SDS011;6521;50.498;8.474;2023-08-31T09:26:06;5.05;;;2.25;;
12906;SDS011;6521;50.498;8.474;2023-08-31T09:28:40;6.10;;;2.25;;
12906;SDS011;6521;50.498;8.474;2023-08-31T09:31:14;3.97;;;2.30;;
12906;SDS011;6521;50.498;8.474;2023-08-31T09:33:51;4.43;;;2.28;;
12906;SDS011;6521;50.498;8.474;2023-08-31T09:36:22;5.75;;;1.98;;
12906;SDS011;6521;50.498;8.474;2023-08-31T09:38:57;7.30;;;2.30;;
12906;SDS011;6521;50.498;8.474;2023-08-31T09:41:29;4.72;;;2.10;;
12906;SDS011;6521;50.498;8.474;2023-08-31T09:44:15;4.22;;;2.05;;
12906;SDS011;6521;50.498;8.474;2023-08-31T09:46:49;4.30;;;2.08;;
12906;SDS011;6521;50.498;8.474;2023-08-31T09:49:20;5.90;;;2.30;;
12906;SDS011;6521;50.498;8.474;2023-08-31T09:51:52;7.32;;;2.25;;
12906;SDS011;6521;50.498;8.474;2023-08-31T09:54:22;3.72;;;1.80;;
12906;SDS011;6521;50.498;8.474;2023-08-31T09:56:56;4.32;;;1.88;;
12906;SDS011;6521;50.498;8.474;2023-08-31T09:59:32;3.58;;;1.85;;
12906;SDS011;6521;50.498;8.474;2023-08-31T10:02:05;6.05;;;2.28;;
12906;SDS011;6521;50.498;8.474;2023-08-31T10:04:37;6.43;;;2.15;;
12906;SDS011;6521;50.498;8.474;2023-08-31T10:07:09;7.38;;;2.25;;
12906;SDS011;6521;50.498;8.474;2023-08-31T10:09:41;3.30;;;1.88;;
12906;SDS011;6521;50.498;8.474;2023-08-31T10:12:13;3.83;;;1.75;;
12906;SDS011;6521;50.498;8.474;2023-08-31T10:14:44;10.85;;;2.13;;
12906;SDS011;6521;50.498;8.474;2023-08-31T10:17:16;4.13;;;1.88;;
12906;SDS011;6521;50.498;8.474;2023-08-31T10:19:49;4.72;;;1.77;;
12906;SDS011;6521;50.498;8.474;2023-08-31T10:22:20;3.13;;;1.52;;
12906;SDS011;6521;50.498;8.474;2023-08-31T10:24:57;4.32;;;1.77;;
12906;SDS011;6521;50.498;8.474;2023-08-31T10:27:43;3.97;;;1.70;;
12906;SDS011;6521;50.498;8.474;2023-08-31T10:35:40;4.50;;;2.08;;
12906;SDS011;6521;50.498;8.474;2023-08-31T10:38:16;2.65;;;1.52;;
12906;SDS011;6521;50.498;8.474;2023-08-31T10:43:46;6.07;;;2.00;;
12906;SDS011;6521;50.498;8.474;2023-08-31T10:46:32;4.43;;;1.90;;
12906;SDS011;6521;50.498;8.474;2023-08-31T10:51:43;7.13;;;1.92;;
12906;SDS011;6521;50.498;8.474;2023-08-31T10:54:29;2.85;;;2.08;;
12906;SDS011;6521;50.498;8.474;2023-08-31T10:57:02;2.70;;;1.70;;
12906;SDS011;6521;50.498;8.474;2023-08-31T10:59:48;4.00;;;1.80;;
12906;SDS011;6521;50.498;8.474;2023-08-31T11:07:40;3.70;;;1.77;;
12906;SDS011;6521;50.498;8.474;2023-08-31T11:10:19;3.88;;;1.60;;
12906;SDS011;6521;50.498;8.474;2023-08-31T11:12:53;4.03;;;1.38;;
12906;SDS011;6521;50.498;8.474;2023-08-31T11:15:25;6.10;;;1.60;;
12906;SDS011;6521;50.498;8.474;2023-08-31T11:17:59;4.57;;;1.42;;
12906;SDS011;6521;50.498;8.474;2023-08-31T11:20:30;4.90;;;1.80;;
12906;SDS011;6521;50.498;8.474;2023-08-31T11:23:01;2.95;;;1.80;;
12906;SDS011;6521;50.498;8.474;2023-08-31T11:25:33;4.85;;;1.67;;
12906;SDS011;6521;50.498;8.474;2023-08-31T11:28:05;3.47;;;1.60;;
12906;SDS011;6521;50.498;8.474;2023-08-31T11:30:40;4.10;;;1.45;;
12906;SDS011;6521;50.498;8.474;2023-08-31T11:33:13;7.55;;;1.67;;
12906;SDS011;6521;50.498;8.474;2023-08-31T11:35:45;3.25;;;1.75;;
12906;SDS011;6521;50.498;8.474;2023-08-31T11:38:16;6.03;;;1.40;;
12906;SDS011;6521;50.498;8.474;2023-08-31T11:40:47;2.00;;;1.35;;
12906;SDS011;6521;50.498;8.474;2023-08-31T11:43:17;4.47;;;1.50;;
12906;SDS011;6521;50.498;8.474;2023-08-31T11:45:50;4.30;;;1.40;;
12906;SDS011;6521;50.498;8.474;2023-08-31T11:48:21;5.32;;;1.45;;
12906;SDS011;6521;50.498;8.474;2023-08-31T11:50:52;6.38;;;1.77;;
12906;SDS011;6521;50.498;8.474;2023-08-31T11:53:24;3.17;;;1.55;;
12906;SDS011;6521;50.498;8.474;2023-08-31T11:55:55;6.15;;;1.73;;
12906;SDS011;6521;50.498;8.474;2023-08-31T11:58:25;4.30;;;1.92;;
12906;SDS011;6521;50.498;8.474;2023-08-31T12:00:58;8.75;;;2.00;;
12906;SDS011;6521;50.498;8.474;2023-08-31T12:03:37;4.40;;;1.60;;
12906;SDS011;6521;50.498;8.474;2023-08-31T12:06:16;2.58;;;1.30;;
12906;SDS011;6521;50.498;8.474;2023-08-31T12:08:50;4.03;;;1.60;;
12906;SDS011;6521;50.498;8.474;2023-08-31T12:11:21;5.25;;;1.85;;
12906;SDS011;6521;50.498;8.474;2023-08-31T12:13:52;10.75;;;1.70;;
12906;SDS011;6521;50.498;8.474;2023-08-31T12:16:22;7.68;;;1.75;;
12906;SDS011;6521;50.498;8.474;2023-08-31T12:18:58;4.03;;;2.05;;
12906;SDS011;6521;50.498;8.474;2023-08-31T12:21:30;4.32;;;1.65;;
12906;SDS011;6521;50.498;8.474;2023-08-31T12:24:04;4.32;;;1.90;;
12906;SDS011;6521;50.498;8.474;2023-08-31T12:26:36;2.60;;;1.70;;
12906;SDS011;6521;50.498;8.474;2023-08-31T12:29:07;7.07;;;2.17;;
12906;SDS011;6521;50.498;8.474;2023-08-31T12:31:38;3.10;;;1.60;;
12906;SDS011;6521;50.498;8.474;2023-08-31T12:34:16;5.53;;;1.98;;
12906;SDS011;6521;50.498;8.474;2023-08-31T12:36:47;2.53;;;1.38;;
12906;SDS011;6521;50.498;8.474;2023-08-31T12:39:18;8.48;;;1.75;;
12906;SDS011;6521;50.498;8.474;2023-08-31T12:41:49;3.45;;;1.90;;
12906;SDS011;6521;50.498;8.474;2023-08-31T12:44:20;7.60;;;1.75;;
12906;SDS011;6521;50.498;8.474;2023-08-31T12:46:51;4.80;;;1.75;;
12906;SDS011;6521;50.498;8.474;2023-08-31T12:49:22;5.25;;;1.90;;
12906;SDS011;6521;50.498;8.474;2023-08-31T12:51:53;4.63;;;1.77;;
12906;SDS011;6521;50.498;8.474;2023-08-31T12:54:24;6.20;;;2.20;;
12906;SDS011;6521;50.498;8.474;2023-08-31T12:56:57;3.92;;;1.70;;
12906;SDS011;6521;50.498;8.474;2023-08-31T12:59:30;5.63;;;1.90;;
12906;SDS011;6521;50.498;8.474;2023-08-31T13:02:01;4.25;;;1.90;;
12906;SDS011;6521;50.498;8.474;2023-08-31T13:04:39;6.28;;;2.00;;
12906;SDS011;6521;50.498;8.474;2023-08-31T13:07:10;5.45;;;2.00;;
12906;SDS011;6521;50.498;8.474;2023-08-31T13:09:41;3.85;;;1.80;;
12906;SDS011;6521;50.498;8.474;2023-08-31T13:12:12;4.25;;;2.15;;
12906;SDS011;6521;50.498;8.474;2023-08-31T13:14:43;8.60;;;2.05;;
12906;SDS011;6521;50.498;8.474;2023-08-31T13:17:14;6.53;;;1.60;;
12906;SDS011;6521;50.498;8.474;2023-08-31T13:19:45;13.00;;;2.22;;
12906;SDS011;6521;50.498;8.474;2023-08-31T13:22:15;3.45;;;2.00;;
12906;SDS011;6521;50.498;8.474;2023-08-31T13:24:46;3.78;;;1.70;;
12906;SDS011;6521;50.498;8.474;2023-08-31T13:27:17;5.82;;;2.10;;
12906;SDS011;6521;50.498;8.474;2023-08-31T13:29:48;6.22;;;2.17;;
12906;SDS011;6521;50.498;8.474;2023-08-31T13:32:19;2.72;;;1.50;;
12906;SDS011;6521;50.498;8.474;2023-08-31T13:34:50;4.35;;;1.60;;
12906;SDS011;6521;50.498;8.474;2023-08-31T13:37:20;5.30;;;1.80;;
12906;SDS011;6521;50.498;8.474;2023-08-31T13:39:51;5.63;;;1.92;;
12906;SDS011;6521;50.498;8.474;2023-08-31T13:42:22;3.78;;;2.00;;
12906;SDS011;6521;50.498;8.474;2023-08-31T13:44:53;3.38;;;1.95;;
12906;SDS011;6521;50.498;8.474;2023-08-31T13:47:25;2.58;;;1.52;;
12906;SDS011;6521;50.498;8.474;2023-08-31T13:49:58;3.78;;;1.77;;
12906;SDS011;6521;50.498;8.474;2023-08-31T13:52:29;3.90;;;1.80;;
12906;SDS011;6521;50.498;8.474;2023-08-31T13:54:59;3.42;;;1.58;;
12906;SDS011;6521;50.498;8.474;2023-08-31T13:57:30;3.25;;;2.03;;
12906;SDS011;6521;50.498;8.474;2023-08-31T14:00:02;2.05;;;1.58;;
12906;SDS011;6521;50.498;8.474;2023-08-31T14:02:39;5.00;;;1.65;;
12906;SDS011;6521;50.498;8.474;2023-08-31T14:05:10;3.38;;;2.13;;
12906;SDS011;6521;50.498;8.474;2023-08-31T14:07:43;4.28;;;1.80;;
12906;SDS011;6521;50.498;8.474;2023-08-31T14:10:14;3.47;;;1.88;;
12906;SDS011;6521;50.498;8.474;2023-08-31T14:12:46;5.30;;;1.75;;
12906;SDS011;6521;50.498;8.474;2023-08-31T14:15:17;4.00;;;2.00;;
12906;SDS011;6521;50.498;8.474;2023-08-31T14:17:50;4.13;;;1.90;;
12906;SDS011;6521;50.498;8.474;2023-08-31T14:20:23;3.55;;;2.05;;
12906;SDS011;6521;50.498;8.474;2023-08-31T14:22:54;4.03;;;1.80;;
12906;SDS011;6521;50.498;8.474;2023-08-31T14:25:26;1.50;;;1.40;;
12906;SDS011;6521;50.498;8.474;2023-08-31T14:27:58;5.20;;;1.67;;
12906;SDS011;6521;50.498;8.474;2023-08-31T14:30:29;41.53;;;2.92;;
12906;SDS011;6521;50.498;8.474;2023-08-31T14:32:59;3.53;;;1.75;;
12906;SDS011;6521;50.498;8.474;2023-08-31T14:35:30;4.00;;;1.67;;
12906;SDS011;6521;50.498;8.474;2023-08-31T14:38:03;9.27;;;1.65;;
12906;SDS011;6521;50.498;8.474;2023-08-31T14:40:34;2.60;;;1.60;;
12906;SDS011;6521;50.498;8.474;2023-08-31T14:43:10;5.43;;;1.80;;
12906;SDS011;6521;50.498;8.474;2023-08-31T14:45:41;5.35;;;1.80;;
12906;SDS011;6521;50.498;8.474;2023-08-31T14:48:13;7.30;;;1.95;;
12906;SDS011;6521;50.498;8.474;2023-08-31T14:50:44;3.03;;;1.45;;
12906;SDS011;6521;50.498;8.474;2023-08-31T14:53:15;5.07;;;1.98;;
12906;SDS011;6521;50.498;8.474;2023-08-31T14:55:51;3.50;;;1.60;;
12906;SDS011;6521;50.498;8.474;2023-08-31T14:58:24;3.08;;;1.67;;
12906;SDS011;6521;50.498;8.474;2023-08-31T15:00:55;5.13;;;1.85;;
12906;SDS011;6521;50.498;8.474;2023-08-31T15:03:27;5.70;;;2.10;;
12906;SDS011;6521;50.498;8.474;2023-08-31T15:05:57;2.08;;;1.63;;
12906;SDS011;6521;50.498;8.474;2023-08-31T15:08:38;7.70;;;2.05;;
12906;SDS011;6521;50.498;8.474;2023-08-31T15:11:10;3.88;;;1.77;;
12906;SDS011;6521;50.498;8.474;2023-08-31T15:13:40;1.73;;;1.63;;
12906;SDS011;6521;50.498;8.474;2023-08-31T15:16:11;3.28;;;2.03;;
12906;SDS011;6521;50.498;8.474;2023-08-31T15:18:42;3.40;;;1.85;;
12906;SDS011;6521;50.498;8.474;2023-08-31T15:21:15;5.25;;;1.90;;
12906;SDS011;6521;50.498;8.474;2023-08-31T15:23:47;2.83;;;1.73;;
12906;SDS011;6521;50.498;8.474;2023-08-31T15:26:18;2.85;;;1.77;;
12906;SDS011;6521;50.498;8.474;2023-08-31T15:28:50;3.60;;;1.80;;
12906;SDS011;6521;50.498;8.474;2023-08-31T15:31:21;7.50;;;2.10;;
12906;SDS011;6521;50.498;8.474;2023-08-31T15:33:57;3.55;;;1.98;;
12906;SDS011;6521;50.498;8.474;2023-08-31T15:36:28;5.53;;;2.03;;
12906;SDS011;6521;50.498;8.474;2023-08-31T15:38:58;4.53;;;2.30;;
12906;SDS011;6521;50.498;8.474;2023-08-31T15:41:29;3.92;;;2.47;;
12906;SDS011;6521;50.498;8.474;2023-08-31T15:44:06;7.18;;;2.72;;
12906;SDS011;6521;50.498;8.474;2023-08-31T15:46:38;3.17;;;2.00;;
12906;SDS011;6521;50.498;8.474;2023-08-31T15:49:09;3.80;;;1.85;;